Language selection

Features

My Weather Profile Weather Topics  | 

North Channel: Past 24 Hour Conditions

 

Wawa Airport

06:00 AM EST 21 January 2020
Disclaimer

This table is a summary of hourly weather conditions for the past 24 hours.
Please note that these observations might not always be representative of weather conditions over their associated marine area.

Date / Time
(EST)
Wind(knots) Conditions Visibility(km) Pressure(kPa) Air tempC) Relative humidity(%) Dew pointC) Wind Chill
21 January 2020
6:00 WSW 10 gust 21 Cloudy 24 102.6 -3 88 -5 -8
5:00 WSW 8 gust 17 N/A N/A 102.6 -3 85 -5 -8
4:00 WSW 10 gust 17 N/A N/A 102.7 -4 85 -6 -10
3:00 W 3 N/A N/A 102.8 -8 88 -10 -11
2:00 S 2 N/A N/A 102.9 -14 92 -15 -16
1:00 SE 1 N/A N/A 103.0 -15 90 -16 -17
0:00 SE 2 N/A N/A 103.1 -17 87 -18 -19
20 January 2020
23:00 SE 1 N/A N/A 103.2 -17 89 -18 -18
22:00 E 1 N/A N/A 103.3 -18 89 -19 -19
21:00 N 1 N/A N/A 103.4 -19 87 -21 -20
20:00 ESE 2 N/A N/A 103.4 -17 89 -19 -20
19:00 E 2 Mainly Clear 24 103.4 -16 92 -17 -18
18:00 N 2 Mainly Clear 24 103.3 -14 89 -15 -16
17:00 NW 2 Mainly Sunny 24 103.3 -10 67 -15 -12
16:00 W 2 Mainly Sunny 24 103.3 -8 52 -16 -10
15:00 WNW 5 Mainly Sunny 24 103.3 -8 47 -17 -13
14:00 W 3 Sunny 24 103.3 -8 52 -17 -11
13:00 NW 5 Sunny 24 103.4 -10 50 -18 -15
12:00 N 3 Sunny 24 103.4 -11 57 -18 -15
11:00 SSE 2 Sunny 24 103.4 -15 72 -19 -17
10:00 NNW 2 Sunny 24 103.4 -19 84 -21 -22
9:00 NE 3 Sunny 24 103.4 -24 83 -26 -29
8:00 calm Mainly Clear 24 103.4 -25 82 -28 *
7:00 ENE 2 Clear 24 103.3 -24 83 -26 -26
6:00 NNE 3 Clear 24 103.3 -25 77 -28 -30

Zoom-in to make a selection

Map of Great Lakes - Lake Superior marine weather areas Mid Superior - 45001 East Superior - 45004 West Superior - 45006 Slate Island - 45136 Lake Of the Woods - 45148 Kenora Airport Royal Island Armstrong Airport Caribou Island Marathon Airport Pukaskwa National Park Thunder Bay Airport Welcome Island Little Flatland Island Sault Ste. Marie Airport Wawa Airport
Legend:
buoy Buoy
land station Land Station

Great Lakes - Lake Superior Area

Another Region

What we are doing

Date modified: